sensor_id;sensor_type;location;lat;lon;timestamp;pressure;altitude;pressure_sealevel;temperature;humidity
18900;BME280;9582;52.018;6.306;2023-04-06T00:00:07;101538.19;;;-0.42;100.00
18900;BME280;9582;52.018;6.306;2023-04-06T00:02:36;101544.09;;;-0.49;100.00
18900;BME280;9582;52.018;6.306;2023-04-06T00:05:03;101528.69;;;-0.51;100.00
18900;BME280;9582;52.018;6.306;2023-04-06T00:07:29;101539.75;;;-0.55;100.00
18900;BME280;9582;52.018;6.306;2023-04-06T00:09:58;101551.69;;;-0.60;100.00
18900;BME280;9582;52.018;6.306;2023-04-06T00:12:25;101560.19;;;-0.66;100.00
18900;BME280;9582;52.018;6.306;2023-04-06T00:14:51;101573.88;;;-0.65;100.00
18900;BME280;9582;52.018;6.306;2023-04-06T00:17:18;101569.59;;;-0.65;100.00
18900;BME280;9582;52.018;6.306;2023-04-06T00:19:46;101585.81;;;-0.67;100.00
18900;BME280;9582;52.018;6.306;2023-04-06T00:22:12;101579.81;;;-0.71;100.00
18900;BME280;9582;52.018;6.306;2023-04-06T00:24:39;101582.38;;;-0.69;100.00
18900;BME280;9582;52.018;6.306;2023-04-06T00:27:05;101580.72;;;-0.64;100.00
18900;BME280;9582;52.018;6.306;2023-04-06T00:29:32;101586.72;;;-0.62;100.00
18900;BME280;9582;52.018;6.306;2023-04-06T00:31:59;101592.72;;;-0.63;100.00
18900;BME280;9582;52.018;6.306;2023-04-06T00:34:25;101590.94;;;-0.67;100.00
18900;BME280;9582;52.018;6.306;2023-04-06T00:36:53;101594.34;;;-0.71;100.00
18900;BME280;9582;52.018;6.306;2023-04-06T00:39:20;101608.78;;;-0.79;100.00
18900;BME280;9582;52.018;6.306;2023-04-06T00:41:51;101617.25;;;-0.85;100.00
18900;BME280;9582;52.018;6.306;2023-04-06T00:44:18;101625.75;;;-0.89;100.00
18900;BME280;9582;52.018;6.306;2023-04-06T00:46:45;101635.09;;;-0.92;100.00
18900;BME280;9582;52.018;6.306;2023-04-06T00:49:11;101638.47;;;-0.96;100.00
18900;BME280;9582;52.018;6.306;2023-04-06T00:51:38;101635.09;;;-0.92;100.00
18900;BME280;9582;52.018;6.306;2023-04-06T00:54:06;101635.97;;;-0.90;100.00
18900;BME280;9582;52.018;6.306;2023-04-06T00:56:34;101634.28;;;-0.91;100.00
18900;BME280;9582;52.018;6.306;2023-04-06T00:59:01;101635.91;;;-0.96;100.00
18900;BME280;9582;52.018;6.306;2023-04-06T01:01:29;101629.91;;;-0.95;100.00
18900;BME280;9582;52.018;6.306;2023-04-06T01:04:01;101631.75;;;-0.88;100.00
18900;BME280;9582;52.018;6.306;2023-04-06T01:06:28;101633.59;;;-0.78;100.00
18900;BME280;9582;52.018;6.306;2023-04-06T01:08:59;101634.47;;;-0.76;100.00
18900;BME280;9582;52.018;6.306;2023-04-06T01:11:27;101631.72;;;-0.91;100.00
18900;BME280;9582;52.018;6.306;2023-04-06T01:13:54;101629.03;;;-0.97;100.00
18900;BME280;9582;52.018;6.306;2023-04-06T01:16:36;101630.78;;;-0.96;100.00
18900;BME280;9582;52.018;6.306;2023-04-06T01:19:09;101623.97;;;-0.93;100.00
18900;BME280;9582;52.018;6.306;2023-04-06T01:21:37;101617.94;;;-0.96;100.00
18900;BME280;9582;52.018;6.306;2023-04-06T01:24:23;101626.47;;;-0.97;100.00
18900;BME280;9582;52.018;6.306;2023-04-06T01:27:22;101614.44;;;-1.01;100.00
18900;BME280;9582;52.018;6.306;2023-04-06T01:30:05;101621.28;;;-1.00;100.00
18900;BME280;9582;52.018;6.306;2023-04-06T01:32:39;101625.59;;;-0.99;100.00
18900;BME280;9582;52.018;6.306;2023-04-06T01:35:08;101629.81;;;-1.01;100.00
18900;BME280;9582;52.018;6.306;2023-04-06T01:37:40;101631.50;;;-1.03;100.00
18900;BME280;9582;52.018;6.306;2023-04-06T01:40:12;101618.63;;;-1.08;100.00
18900;BME280;9582;52.018;6.306;2023-04-06T01:42:44;101615.91;;;-1.16;100.00
18900;BME280;9582;52.018;6.306;2023-04-06T01:45:16;101617.56;;;-1.22;100.00
18900;BME280;9582;52.018;6.306;2023-04-06T01:47:43;101620.97;;;-1.22;100.00
18900;BME280;9582;52.018;6.306;2023-04-06T01:50:11;101612.47;;;-1.19;100.00
18900;BME280;9582;52.018;6.306;2023-04-06T01:52:43;101608.97;;;-1.23;100.00
18900;BME280;9582;52.018;6.306;2023-04-06T01:55:10;101610.56;;;-1.31;100.00
18900;BME280;9582;52.018;6.306;2023-04-06T01:57:57;101607.91;;;-1.35;100.00
18900;BME280;9582;52.018;6.306;2023-04-06T02:00:35;101608.63;;;-1.44;100.00
18900;BME280;9582;52.018;6.306;2023-04-06T02:03:01;101601.78;;;-1.45;100.00
18900;BME280;9582;52.018;6.306;2023-04-06T02:05:31;101596.59;;;-1.48;100.00
18900;BME280;9582;52.018;6.306;2023-04-06T02:07:59;101604.25;;;-1.51;100.00
18900;BME280;9582;52.018;6.306;2023-04-06T02:10:32;101603.38;;;-1.53;100.00
18900;BME280;9582;52.018;6.306;2023-04-06T02:13:06;101603.41;;;-1.50;100.00
18900;BME280;9582;52.018;6.306;2023-04-06T02:15:33;101598.34;;;-1.47;100.00
18900;BME280;9582;52.018;6.306;2023-04-06T02:18:00;101594.88;;;-1.49;100.00
18900;BME280;9582;52.018;6.306;2023-04-06T02:20:27;101595.69;;;-1.51;100.00
18900;BME280;9582;52.018;6.306;2023-04-06T02:22:53;101604.19;;;-1.52;100.00
18900;BME280;9582;52.018;6.306;2023-04-06T02:25:20;101599.06;;;-1.55;100.00
18900;BME280;9582;52.018;6.306;2023-04-06T02:27:46;101596.44;;;-1.57;100.00
18900;BME280;9582;52.018;6.306;2023-04-06T02:30:14;101600.75;;;-1.56;100.00
18900;BME280;9582;52.018;6.306;2023-04-06T02:32:40;101598.97;;;-1.60;100.00
18900;BME280;9582;52.018;6.306;2023-04-06T02:35:08;101592.94;;;-1.62;100.00
18900;BME280;9582;52.018;6.306;2023-04-06T02:37:34;101595.47;;;-1.63;100.00
18900;BME280;9582;52.018;6.306;2023-04-06T02:40:01;101598.03;;;-1.65;100.00
18900;BME280;9582;52.018;6.306;2023-04-06T02:42:29;101592.00;;;-1.67;100.00
18900;BME280;9582;52.018;6.306;2023-04-06T02:44:56;101591.97;;;-1.70;100.00
18900;BME280;9582;52.018;6.306;2023-04-06T02:47:28;101600.47;;;-1.72;100.00
18900;BME280;9582;52.018;6.306;2023-04-06T02:49:54;101597.84;;;-1.76;100.00
18900;BME280;9582;52.018;6.306;2023-04-06T02:52:21;101601.22;;;-1.78;100.00
18900;BME280;9582;52.018;6.306;2023-04-06T02:54:48;101603.78;;;-1.78;100.00
18900;BME280;9582;52.018;6.306;2023-04-06T02:57:21;101594.34;;;-1.79;100.00
18900;BME280;9582;52.018;6.306;2023-04-06T02:59:48;101597.72;;;-1.82;100.00
18900;BME280;9582;52.018;6.306;2023-04-06T03:02:23;101592.63;;;-1.80;100.00
18900;BME280;9582;52.018;6.306;2023-04-06T03:04:51;101590.00;;;-1.83;100.00
18900;BME280;9582;52.018;6.306;2023-04-06T03:07:30;101590.91;;;-1.81;100.00
18900;BME280;9582;52.018;6.306;2023-04-06T03:09:56;101592.56;;;-1.83;100.00
18900;BME280;9582;52.018;6.306;2023-04-06T03:12:23;101593.44;;;-1.83;100.00
18900;BME280;9582;52.018;6.306;2023-04-06T03:15:08;101586.59;;;-1.84;100.00
18900;BME280;9582;52.018;6.306;2023-04-06T03:17:36;101590.81;;;-1.86;100.00
18900;BME280;9582;52.018;6.306;2023-04-06T03:20:09;101591.66;;;-1.87;100.00
18900;BME280;9582;52.018;6.306;2023-04-06T03:22:36;101585.72;;;-1.84;100.00
18900;BME280;9582;52.018;6.306;2023-04-06T03:25:05;101584.03;;;-1.84;100.00
18900;BME280;9582;52.018;6.306;2023-04-06T03:27:32;101584.03;;;-1.84;100.00
18900;BME280;9582;52.018;6.306;2023-04-06T03:29:59;101590.84;;;-1.84;100.00
18900;BME280;9582;52.018;6.306;2023-04-06T03:32:31;101592.50;;;-1.86;100.00
18900;BME280;9582;52.018;6.306;2023-04-06T03:34:58;101595.88;;;-1.89;100.00
18900;BME280;9582;52.018;6.306;2023-04-06T03:37:26;101601.81;;;-1.91;100.00
18900;BME280;9582;52.018;6.306;2023-04-06T03:39:57;101599.25;;;-1.91;100.00
18900;BME280;9582;52.018;6.306;2023-04-06T03:42:24;101597.53;;;-1.92;100.00
18900;BME280;9582;52.018;6.306;2023-04-06T03:44:56;101599.19;;;-1.94;100.00
18900;BME280;9582;52.018;6.306;2023-04-06T03:47:24;101599.13;;;-1.97;100.00
18900;BME280;9582;52.018;6.306;2023-04-06T03:49:54;101597.38;;;-2.01;100.00
18900;BME280;9582;52.018;6.306;2023-04-06T03:52:21;101593.94;;;-2.00;100.00
18900;BME280;9582;52.018;6.306;2023-04-06T03:54:52;101596.50;;;-2.02;100.00
18900;BME280;9582;52.018;6.306;2023-04-06T03:57:18;101601.63;;;-2.03;100.00
18900;BME280;9582;52.018;6.306;2023-04-06T03:59:44;101612.69;;;-2.04;100.00
18900;BME280;9582;52.018;6.306;2023-04-06T04:02:11;101611.81;;;-2.05;100.00
18900;BME280;9582;52.018;6.306;2023-04-06T04:04:37;101611.94;;;-1.99;100.00
18900;BME280;9582;52.018;6.306;2023-04-06T04:07:04;101608.69;;;-1.90;100.00
18900;BME280;9582;52.018;6.306;2023-04-06T04:09:30;101611.31;;;-1.86;100.00
18900;BME280;9582;52.018;6.306;2023-04-06T04:11:58;101616.53;;;-1.81;100.00
18900;BME280;9582;52.018;6.306;2023-04-06T04:14:25;101610.56;;;-1.80;100.00
18900;BME280;9582;52.018;6.306;2023-04-06T04:16:51;101615.69;;;-1.82;100.00
18900;BME280;9582;52.018;6.306;2023-04-06T04:19:18;101613.09;;;-1.82;100.00
18900;BME280;9582;52.018;6.306;2023-04-06T04:21:46;101613.13;;;-1.80;100.00
18900;BME280;9582;52.018;6.306;2023-04-06T04:24:17;101617.38;;;-1.82;100.00
18900;BME280;9582;52.018;6.306;2023-04-06T04:26:43;101613.00;;;-1.86;100.00
18900;BME280;9582;52.018;6.306;2023-04-06T04:29:11;101608.75;;;-1.87;100.00
18900;BME280;9582;52.018;6.306;2023-04-06T04:31:38;101607.97;;;-1.82;100.00
18900;BME280;9582;52.018;6.306;2023-04-06T04:34:11;101611.41;;;-1.81;100.00
18900;BME280;9582;52.018;6.306;2023-04-06T04:36:37;101610.44;;;-1.86;100.00
18900;BME280;9582;52.018;6.306;2023-04-06T04:39:08;101608.69;;;-1.89;100.00
18900;BME280;9582;52.018;6.306;2023-04-06T04:41:39;101613.81;;;-1.89;100.00
18900;BME280;9582;52.018;6.306;2023-04-06T04:44:08;101615.03;;;-1.70;100.00
18900;BME280;9582;52.018;6.306;2023-04-06T04:46:36;101608.50;;;-1.53;100.00
18900;BME280;9582;52.018;6.306;2023-04-06T04:49:03;101601.78;;;-1.43;100.00
18900;BME280;9582;52.018;6.306;2023-04-06T04:51:31;101603.75;;;-1.30;100.00
18900;BME280;9582;52.018;6.306;2023-04-06T04:54:08;101604.72;;;-1.22;100.00
18900;BME280;9582;52.018;6.306;2023-04-06T04:56:35;101604.88;;;-1.13;100.00
18900;BME280;9582;52.018;6.306;2023-04-06T04:59:18;101611.03;;;-1.02;100.00
18900;BME280;9582;52.018;6.306;2023-04-06T05:01:53;101600.91;;;-0.91;100.00
18900;BME280;9582;52.018;6.306;2023-04-06T05:04:24;101612.13;;;-0.83;100.00
18900;BME280;9582;52.018;6.306;2023-04-06T05:07:02;101604.47;;;-0.80;100.00
18900;BME280;9582;52.018;6.306;2023-04-06T05:09:29;101604.56;;;-0.74;100.00
18900;BME280;9582;52.018;6.306;2023-04-06T05:11:56;101603.78;;;-0.69;100.00
18900;BME280;9582;52.018;6.306;2023-04-06T05:14:22;101602.13;;;-0.62;100.00
18900;BME280;9582;52.018;6.306;2023-04-06T05:16:49;101601.41;;;-0.55;100.00
18900;BME280;9582;52.018;6.306;2023-04-06T05:19:17;101603.19;;;-0.48;100.00
18900;BME280;9582;52.018;6.306;2023-04-06T05:21:45;101593.84;;;-0.41;100.00
18900;BME280;9582;52.018;6.306;2023-04-06T05:24:11;101593.06;;;-0.36;100.00
18900;BME280;9582;52.018;6.306;2023-04-06T05:26:39;101585.47;;;-0.27;100.00
18900;BME280;9582;52.018;6.306;2023-04-06T05:29:13;101593.25;;;-0.21;100.00
18900;BME280;9582;52.018;6.306;2023-04-06T05:31:40;101587.34;;;-0.12;100.00
18900;BME280;9582;52.018;6.306;2023-04-06T05:34:07;101584.84;;;-0.05;100.00
18900;BME280;9582;52.018;6.306;2023-04-06T05:36:37;101578.94;;;0.04;100.00
18900;BME280;9582;52.018;6.306;2023-04-06T05:39:14;101581.63;;;0.15;100.00
18900;BME280;9582;52.018;6.306;2023-04-06T05:41:48;101577.47;;;0.27;100.00
18900;BME280;9582;52.018;6.306;2023-04-06T05:44:20;101581.00;;;0.40;100.00
18900;BME280;9582;52.018;6.306;2023-04-06T05:46:55;101573.38;;;0.49;100.00
18900;BME280;9582;52.018;6.306;2023-04-06T05:49:21;101571.69;;;0.54;100.00
18900;BME280;9582;52.018;6.306;2023-04-06T05:51:49;101564.00;;;0.60;100.00
18900;BME280;9582;52.018;6.306;2023-04-06T05:54:16;101569.25;;;0.69;100.00
18900;BME280;9582;52.018;6.306;2023-04-06T05:56:43;101567.59;;;0.80;100.00
18900;BME280;9582;52.018;6.306;2023-04-06T05:59:11;101560.84;;;0.96;100.00
18900;BME280;9582;52.018;6.306;2023-04-06T06:01:38;101565.31;;;1.24;100.00
18900;BME280;9582;52.018;6.306;2023-04-06T06:04:05;101560.28;;;1.54;100.00
18900;BME280;9582;52.018;6.306;2023-04-06T06:06:35;101556.13;;;2.18;100.00
18900;BME280;9582;52.018;6.306;2023-04-06T06:09:11;101538.06;;;2.68;100.00
18900;BME280;9582;52.018;6.306;2023-04-06T06:11:44;101525.94;;;3.05;100.00
18900;BME280;9582;52.018;6.306;2023-04-06T06:14:13;101510.34;;;3.34;100.00
18900;BME280;9582;52.018;6.306;2023-04-06T06:16:40;101489.53;;;3.60;100.00
18900;BME280;9582;52.018;6.306;2023-04-06T06:19:09;101470.44;;;3.79;100.00
18900;BME280;9582;52.018;6.306;2023-04-06T06:21:36;101469.44;;;3.99;100.00
18900;BME280;9582;52.018;6.306;2023-04-06T06:24:05;101448.53;;;4.25;100.00
18900;BME280;9582;52.018;6.306;2023-04-06T06:26:33;101432.81;;;4.40;100.00
18900;BME280;9582;52.018;6.306;2023-04-06T06:29:02;101418.00;;;4.54;100.00
18900;BME280;9582;52.018;6.306;2023-04-06T06:31:30;101405.69;;;4.75;100.00
18900;BME280;9582;52.018;6.306;2023-04-06T06:33:56;101401.06;;;5.02;100.00
18900;BME280;9582;52.018;6.306;2023-04-06T06:36:25;101393.09;;;5.16;100.00
18900;BME280;9582;52.018;6.306;2023-04-06T06:38:51;101389.38;;;5.35;100.00
18900;BME280;9582;52.018;6.306;2023-04-06T06:41:20;101392.44;;;5.60;100.00
18900;BME280;9582;52.018;6.306;2023-04-06T06:43:48;101374.78;;;5.81;100.00
18900;BME280;9582;52.018;6.306;2023-04-06T06:46:14;101371.78;;;6.07;100.00
18900;BME280;9582;52.018;6.306;2023-04-06T06:48:40;101365.81;;;6.04;100.00
18900;BME280;9582;52.018;6.306;2023-04-06T06:51:07;101367.19;;;6.23;100.00
18900;BME280;9582;52.018;6.306;2023-04-06T06:53:34;101351.94;;;6.51;100.00
18900;BME280;9582;52.018;6.306;2023-04-06T06:56:01;101346.97;;;6.40;100.00
18900;BME280;9582;52.018;6.306;2023-04-06T06:58:29;101337.34;;;6.45;100.00
18900;BME280;9582;52.018;6.306;2023-04-06T07:00:57;101328.44;;;6.57;100.00
18900;BME280;9582;52.018;6.306;2023-04-06T07:03:24;101327.41;;;6.64;100.00
18900;BME280;9582;52.018;6.306;2023-04-06T07:05:51;101326.75;;;6.10;100.00
18900;BME280;9582;52.018;6.306;2023-04-06T07:08:19;101320.38;;;5.77;100.00
18900;BME280;9582;52.018;6.306;2023-04-06T07:10:46;101323.84;;;5.76;100.00
18900;BME280;9582;52.018;6.306;2023-04-06T07:13:13;101320.13;;;5.94;100.00
18900;BME280;9582;52.018;6.306;2023-04-06T07:15:43;101310.06;;;6.23;100.00
18900;BME280;9582;52.018;6.306;2023-04-06T07:18:12;101310.50;;;6.45;100.00
18900;BME280;9582;52.018;6.306;2023-04-06T07:20:39;101308.53;;;6.56;100.00
18900;BME280;9582;52.018;6.306;2023-04-06T07:23:06;101303.75;;;6.36;100.00
18900;BME280;9582;52.018;6.306;2023-04-06T07:25:32;101299.75;;;6.20;100.00
18900;BME280;9582;52.018;6.306;2023-04-06T07:27:59;101292.78;;;6.22;100.00
18900;BME280;9582;52.018;6.306;2023-04-06T07:30:26;101290.75;;;6.36;100.00
18900;BME280;9582;52.018;6.306;2023-04-06T07:32:54;101284.28;;;6.55;100.00
18900;BME280;9582;52.018;6.306;2023-04-06T07:35:23;101285.84;;;6.65;100.00
18900;BME280;9582;52.018;6.306;2023-04-06T07:37:51;101289.13;;;6.73;100.00
18900;BME280;9582;52.018;6.306;2023-04-06T07:40:18;101283.94;;;6.72;100.00
18900;BME280;9582;52.018;6.306;2023-04-06T07:42:45;101279.72;;;6.66;100.00
18900;BME280;9582;52.018;6.306;2023-04-06T07:45:11;101281.44;;;6.67;100.00
18900;BME280;9582;52.018;6.306;2023-04-06T07:47:38;101283.91;;;6.73;100.00
18900;BME280;9582;52.018;6.306;2023-04-06T07:50:05;101287.28;;;6.78;100.00
18900;BME280;9582;52.018;6.306;2023-04-06T07:52:33;101281.00;;;6.88;100.00
18900;BME280;9582;52.018;6.306;2023-04-06T07:55:00;101272.22;;;6.92;100.00
18900;BME280;9582;52.018;6.306;2023-04-06T07:57:27;101272.09;;;6.98;100.00
18900;BME280;9582;52.018;6.306;2023-04-06T07:59:53;101266.81;;;7.02;100.00
18900;BME280;9582;52.018;6.306;2023-04-06T08:02:19;101271.56;;;7.21;100.00
18900;BME280;9582;52.018;6.306;2023-04-06T08:04:47;101258.88;;;7.43;100.00
18900;BME280;9582;52.018;6.306;2023-04-06T08:07:14;101260.09;;;7.64;100.00
18900;BME280;9582;52.018;6.306;2023-04-06T08:09:41;101258.88;;;7.77;100.00
18900;BME280;9582;52.018;6.306;2023-04-06T08:12:08;101256.88;;;7.86;100.00
18900;BME280;9582;52.018;6.306;2023-04-06T08:14:34;101263.91;;;7.84;100.00
18900;BME280;9582;52.018;6.306;2023-04-06T08:17:01;101262.25;;;7.80;100.00
18900;BME280;9582;52.018;6.306;2023-04-06T08:19:28;101254.31;;;7.85;100.00
18900;BME280;9582;52.018;6.306;2023-04-06T08:21:54;101255.00;;;7.91;100.00
18900;BME280;9582;52.018;6.306;2023-04-06T08:24:21;101258.88;;;8.09;100.00
18900;BME280;9582;52.018;6.306;2023-04-06T08:26:48;101248.69;;;8.32;100.00
18900;BME280;9582;52.018;6.306;2023-04-06T08:29:15;101245.53;;;8.52;100.00
18900;BME280;9582;52.018;6.306;2023-04-06T08:31:42;101234.16;;;8.82;100.00
18900;BME280;9582;52.018;6.306;2023-04-06T08:34:08;101226.56;;;9.02;100.00
18900;BME280;9582;52.018;6.306;2023-04-06T08:36:35;101227.63;;;9.23;100.00
18900;BME280;9582;52.018;6.306;2023-04-06T08:39:02;101224.00;;;9.27;100.00
18900;BME280;9582;52.018;6.306;2023-04-06T08:41:28;101214.94;;;9.39;100.00
18900;BME280;9582;52.018;6.306;2023-04-06T08:43:58;101207.66;;;9.48;100.00
18900;BME280;9582;52.018;6.306;2023-04-06T08:46:26;101212.41;;;9.62;100.00
18900;BME280;9582;52.018;6.306;2023-04-06T08:48:55;101205.78;;;9.76;100.00
18900;BME280;9582;52.018;6.306;2023-04-06T08:51:23;101195.06;;;9.84;100.00
18900;BME280;9582;52.018;6.306;2023-04-06T08:53:50;101180.41;;;9.80;100.00
18900;BME280;9582;52.018;6.306;2023-04-06T08:56:19;101168.38;;;9.76;100.00
18900;BME280;9582;52.018;6.306;2023-04-06T08:58:47;101169.47;;;9.69;100.00
18900;BME280;9582;52.018;6.306;2023-04-06T09:01:17;101161.75;;;9.66;100.00
18900;BME280;9582;52.018;6.306;2023-04-06T09:03:46;101136.69;;;9.62;100.00
18900;BME280;9582;52.018;6.306;2023-04-06T09:06:14;101119.97;;;9.66;100.00
18900;BME280;9582;52.018;6.306;2023-04-06T09:08:41;101126.91;;;9.67;100.00
18900;BME280;9582;52.018;6.306;2023-04-06T09:11:08;101146.19;;;9.63;100.00
18900;BME280;9582;52.018;6.306;2023-04-06T09:13:45;101140.88;;;9.66;100.00
18900;BME280;9582;52.018;6.306;2023-04-06T09:16:12;101136.94;;;9.79;100.00
18900;BME280;9582;52.018;6.306;2023-04-06T09:18:40;101117.09;;;9.97;100.00
18900;BME280;9582;52.018;6.306;2023-04-06T09:21:07;101117.44;;;10.11;100.00
18900;BME280;9582;52.018;6.306;2023-04-06T09:23:34;101133.84;;;10.16;100.00
18900;BME280;9582;52.018;6.306;2023-04-06T09:26:08;101143.00;;;10.26;100.00
18900;BME280;9582;52.018;6.306;2023-04-06T09:28:45;101140.06;;;10.35;100.00
18900;BME280;9582;52.018;6.306;2023-04-06T09:31:13;101129.97;;;10.48;100.00
18900;BME280;9582;52.018;6.306;2023-04-06T09:33:44;101144.88;;;10.46;100.00
18900;BME280;9582;52.018;6.306;2023-04-06T09:36:11;101146.34;;;10.53;100.00
18900;BME280;9582;52.018;6.306;2023-04-06T09:38:51;101158.38;;;10.57;100.00
18900;BME280;9582;52.018;6.306;2023-04-06T09:41:21;101164.44;;;10.57;100.00
18900;BME280;9582;52.018;6.306;2023-04-06T09:43:49;101154.50;;;10.67;100.00
18900;BME280;9582;52.018;6.306;2023-04-06T09:46:15;101149.72;;;10.76;100.00
18900;BME280;9582;52.018;6.306;2023-04-06T09:48:44;101160.81;;;10.83;100.00
18900;BME280;9582;52.018;6.306;2023-04-06T09:51:14;101171.84;;;10.89;100.00
18900;BME280;9582;52.018;6.306;2023-04-06T09:53:44;101177.56;;;10.99;100.00
18900;BME280;9582;52.018;6.306;2023-04-06T09:56:17;101177.09;;;11.11;100.00
18900;BME280;9582;52.018;6.306;2023-04-06T09:58:46;101182.06;;;11.17;100.00
18900;BME280;9582;52.018;6.306;2023-04-06T10:01:19;101175.53;;;11.27;100.00
18900;BME280;9582;52.018;6.306;2023-04-06T10:03:54;101163.16;;;11.31;100.00
18900;BME280;9582;52.018;6.306;2023-04-06T10:06:23;101173.03;;;11.24;100.00
18900;BME280;9582;52.018;6.306;2023-04-06T10:08:54;101170.63;;;11.20;100.00
18900;BME280;9582;52.018;6.306;2023-04-06T10:11:23;101160.19;;;11.18;100.00
18900;BME280;9582;52.018;6.306;2023-04-06T10:13:49;101158.38;;;11.20;100.00
18900;BME280;9582;52.018;6.306;2023-04-06T10:16:16;101156.47;;;11.24;100.00
18900;BME280;9582;52.018;6.306;2023-04-06T10:18:45;101154.72;;;11.44;100.00
18900;BME280;9582;52.018;6.306;2023-04-06T10:21:16;101155.63;;;11.64;100.00
18900;BME280;9582;52.018;6.306;2023-04-06T10:23:48;101164.97;;;11.71;100.00
18900;BME280;9582;52.018;6.306;2023-04-06T10:26:16;101167.00;;;11.83;100.00
18900;BME280;9582;52.018;6.306;2023-04-06T10:28:45;101153.03;;;12.02;100.00
18900;BME280;9582;52.018;6.306;2023-04-06T10:31:11;101148.50;;;12.06;100.00
18900;BME280;9582;52.018;6.306;2023-04-06T10:33:38;101154.50;;;12.08;100.00
18900;BME280;9582;52.018;6.306;2023-04-06T10:36:14;101162.38;;;12.08;100.00
18900;BME280;9582;52.018;6.306;2023-04-06T10:38:41;101157.31;;;12.05;100.00
18900;BME280;9582;52.018;6.306;2023-04-06T10:41:09;101178.69;;;11.96;100.00
18900;BME280;9582;52.018;6.306;2023-04-06T10:43:37;101172.31;;;12.01;100.00
18900;BME280;9582;52.018;6.306;2023-04-06T10:46:05;101176.69;;;12.01;100.00
18900;BME280;9582;52.018;6.306;2023-04-06T10:48:39;101177.59;;;12.00;100.00
18900;BME280;9582;52.018;6.306;2023-04-06T10:51:10;101177.59;;;12.00;100.00
18900;BME280;9582;52.018;6.306;2023-04-06T10:53:40;101172.72;;;12.11;100.00
18900;BME280;9582;52.018;6.306;2023-04-06T10:56:09;101173.88;;;12.24;100.00
18900;BME280;9582;52.018;6.306;2023-04-06T10:58:37;101181.75;;;12.24;100.00
18900;BME280;9582;52.018;6.306;2023-04-06T11:01:03;101188.44;;;12.11;100.00
18900;BME280;9582;52.018;6.306;2023-04-06T11:03:31;101189.72;;;12.02;100.00
18900;BME280;9582;52.018;6.306;2023-04-06T11:05:57;101196.94;;;11.97;100.00
18900;BME280;9582;52.018;6.306;2023-04-06T11:08:29;101188.84;;;11.83;100.00
18900;BME280;9582;52.018;6.306;2023-04-06T11:11:08;101184.44;;;11.84;100.00
18900;BME280;9582;52.018;6.306;2023-04-06T11:13:40;101183.59;;;11.83;100.00
18900;BME280;9582;52.018;6.306;2023-04-06T11:16:06;101202.88;;;11.82;100.00
18900;BME280;9582;52.018;6.306;2023-04-06T11:18:33;101203.00;;;11.79;100.00
18900;BME280;9582;52.018;6.306;2023-04-06T11:21:00;101201.38;;;11.77;100.00
18900;BME280;9582;52.018;6.306;2023-04-06T11:23:26;101187.28;;;11.79;100.00
18900;BME280;9582;52.018;6.306;2023-04-06T11:25:53;101185.22;;;11.86;100.00
18900;BME280;9582;52.018;6.306;2023-04-06T11:28:21;101188.69;;;11.86;100.00
18900;BME280;9582;52.018;6.306;2023-04-06T11:30:48;101201.94;;;11.83;100.00
18900;BME280;9582;52.018;6.306;2023-04-06T11:33:20;101188.78;;;11.85;100.00
18900;BME280;9582;52.018;6.306;2023-04-06T11:35:47;101190.53;;;11.84;100.00
18900;BME280;9582;52.018;6.306;2023-04-06T11:38:14;101193.69;;;11.92;100.00
18900;BME280;9582;52.018;6.306;2023-04-06T11:40:40;101201.44;;;11.94;100.00
18900;BME280;9582;52.018;6.306;2023-04-06T11:43:11;101210.00;;;11.99;100.00
18900;BME280;9582;52.018;6.306;2023-04-06T11:45:43;101205.28;;;11.87;100.00
18900;BME280;9582;52.018;6.306;2023-04-06T11:48:18;101206.53;;;11.78;100.00
18900;BME280;9582;52.018;6.306;2023-04-06T11:50:46;101204.13;;;11.74;100.00
18900;BME280;9582;52.018;6.306;2023-04-06T11:53:13;101208.00;;;11.64;100.00
18900;BME280;9582;52.018;6.306;2023-04-06T11:55:39;101209.97;;;11.58;100.00
18900;BME280;9582;52.018;6.306;2023-04-06T11:58:06;101218.09;;;11.52;100.00
18900;BME280;9582;52.018;6.306;2023-04-06T12:00:32;101206.97;;;11.47;100.00
18900;BME280;9582;52.018;6.306;2023-04-06T12:03:01;101211.22;;;11.50;100.00
18900;BME280;9582;52.018;6.306;2023-04-06T12:05:28;101194.38;;;11.55;100.00
18900;BME280;9582;52.018;6.306;2023-04-06T12:07:54;101192.94;;;11.69;100.00
18900;BME280;9582;52.018;6.306;2023-04-06T12:10:22;101184.72;;;11.78;100.00
18900;BME280;9582;52.018;6.306;2023-04-06T12:12:48;101184.72;;;11.78;100.00
18900;BME280;9582;52.018;6.306;2023-04-06T12:15:15;101192.66;;;11.76;100.00
18900;BME280;9582;52.018;6.306;2023-04-06T12:17:41;101185.56;;;11.78;100.00
18900;BME280;9582;52.018;6.306;2023-04-06T12:20:10;101182.56;;;11.87;100.00
18900;BME280;9582;52.018;6.306;2023-04-06T12:22:37;101184.69;;;11.98;100.00
18900;BME280;9582;52.018;6.306;2023-04-06T12:25:04;101191.16;;;12.09;100.00
18900;BME280;9582;52.018;6.306;2023-04-06T12:27:31;101186.91;;;12.26;100.00
18900;BME280;9582;52.018;6.306;2023-04-06T12:29:58;101170.88;;;12.50;100.00
18900;BME280;9582;52.018;6.306;2023-04-06T12:32:25;101159.84;;;12.80;100.00
18900;BME280;9582;52.018;6.306;2023-04-06T12:34:52;101159.28;;;12.92;100.00
18900;BME280;9582;52.018;6.306;2023-04-06T12:37:20;101173.63;;;13.02;100.00
18900;BME280;9582;52.018;6.306;2023-04-06T12:39:46;101181.66;;;12.99;100.00
18900;BME280;9582;52.018;6.306;2023-04-06T12:42:13;101191.97;;;12.85;100.00
18900;BME280;9582;52.018;6.306;2023-04-06T12:44:39;101186.75;;;12.66;100.00
18900;BME280;9582;52.018;6.306;2023-04-06T12:47:07;101194.84;;;12.43;100.00
18900;BME280;9582;52.018;6.306;2023-04-06T12:49:34;101176.38;;;12.27;100.00
18900;BME280;9582;52.018;6.306;2023-04-06T12:52:01;101179.63;;;12.13;100.00
18900;BME280;9582;52.018;6.306;2023-04-06T12:54:29;101179.59;;;11.95;100.00
18900;BME280;9582;52.018;6.306;2023-04-06T12:56:56;101186.34;;;11.80;100.00
18900;BME280;9582;52.018;6.306;2023-04-06T12:59:22;101156.47;;;11.64;100.00